sensor_id;sensor_type;location;lat;lon;timestamp;P1;durP1;ratioP1;P2;durP2;ratioP2
11113;SDS011;5610;52.154;9.198;2024-02-23T00:01:19;4.33;;;1.30;;
11113;SDS011;5610;52.154;9.198;2024-02-23T00:04:04;4.10;;;1.37;;
11113;SDS011;5610;52.154;9.198;2024-02-23T00:06:52;2.07;;;0.90;;
11113;SDS011;5610;52.154;9.198;2024-02-23T00:09:37;2.53;;;1.30;;
11113;SDS011;5610;52.154;9.198;2024-02-23T00:12:22;4.93;;;1.50;;
11113;SDS011;5610;52.154;9.198;2024-02-23T00:15:08;5.30;;;1.20;;
11113;SDS011;5610;52.154;9.198;2024-02-23T00:17:55;2.10;;;1.03;;
11113;SDS011;5610;52.154;9.198;2024-02-23T00:20:40;3.40;;;1.10;;
11113;SDS011;5610;52.154;9.198;2024-02-23T00:23:25;1.83;;;0.93;;
11113;SDS011;5610;52.154;9.198;2024-02-23T00:26:12;4.40;;;1.63;;
11113;SDS011;5610;52.154;9.198;2024-02-23T00:28:58;2.07;;;1.20;;
11113;SDS011;5610;52.154;9.198;2024-02-23T00:31:43;3.20;;;0.93;;
11113;SDS011;5610;52.154;9.198;2024-02-23T00:34:30;3.40;;;1.33;;
11113;SDS011;5610;52.154;9.198;2024-02-23T00:37:16;3.53;;;1.13;;
11113;SDS011;5610;52.154;9.198;2024-02-23T00:40:01;2.40;;;1.27;;
11113;SDS011;5610;52.154;9.198;2024-02-23T00:42:47;2.60;;;1.00;;
11113;SDS011;5610;52.154;9.198;2024-02-23T00:45:32;2.53;;;1.00;;
11113;SDS011;5610;52.154;9.198;2024-02-23T00:48:17;1.50;;;0.80;;
11113;SDS011;5610;52.154;9.198;2024-02-23T00:51:04;1.47;;;0.60;;
11113;SDS011;5610;52.154;9.198;2024-02-23T00:53:49;3.50;;;0.70;;
11113;SDS011;5610;52.154;9.198;2024-02-23T00:56:34;1.10;;;0.80;;
11113;SDS011;5610;52.154;9.198;2024-02-23T00:59:19;1.67;;;0.73;;
11113;SDS011;5610;52.154;9.198;2024-02-23T01:02:05;0.70;;;0.67;;
11113;SDS011;5610;52.154;9.198;2024-02-23T01:04:50;1.27;;;0.90;;
11113;SDS011;5610;52.154;9.198;2024-02-23T01:07:41;2.30;;;0.90;;
11113;SDS011;5610;52.154;9.198;2024-02-23T01:10:26;1.70;;;0.83;;
11113;SDS011;5610;52.154;9.198;2024-02-23T01:13:12;2.40;;;0.87;;
11113;SDS011;5610;52.154;9.198;2024-02-23T01:15:57;0.70;;;0.70;;
11113;SDS011;5610;52.154;9.198;2024-02-23T01:18:42;0.80;;;0.80;;
11113;SDS011;5610;52.154;9.198;2024-02-23T01:21:28;0.70;;;0.70;;
11113;SDS011;5610;52.154;9.198;2024-02-23T01:24:15;2.20;;;1.07;;
11113;SDS011;5610;52.154;9.198;2024-02-23T01:27:00;2.10;;;0.90;;
11113;SDS011;5610;52.154;9.198;2024-02-23T01:29:46;0.80;;;0.80;;
11113;SDS011;5610;52.154;9.198;2024-02-23T01:32:31;1.43;;;0.73;;
11113;SDS011;5610;52.154;9.198;2024-02-23T01:35:16;1.00;;;0.60;;
11113;SDS011;5610;52.154;9.198;2024-02-23T01:38:02;0.60;;;0.60;;
11113;SDS011;5610;52.154;9.198;2024-02-23T01:40:48;0.50;;;0.50;;
11113;SDS011;5610;52.154;9.198;2024-02-23T01:43:34;0.40;;;0.30;;
11113;SDS011;5610;52.154;9.198;2024-02-23T01:46:19;0.40;;;0.40;;
11113;SDS011;5610;52.154;9.198;2024-02-23T01:49:05;0.50;;;0.50;;
11113;SDS011;5610;52.154;9.198;2024-02-23T01:51:51;0.60;;;0.40;;
11113;SDS011;5610;52.154;9.198;2024-02-23T01:54:36;0.60;;;0.50;;
11113;SDS011;5610;52.154;9.198;2024-02-23T01:57:24;0.80;;;0.43;;
11113;SDS011;5610;52.154;9.198;2024-02-23T02:00:10;0.57;;;0.57;;
11113;SDS011;5610;52.154;9.198;2024-02-23T02:03:04;1.47;;;0.50;;
11113;SDS011;5610;52.154;9.198;2024-02-23T02:05:49;0.60;;;0.60;;
11113;SDS011;5610;52.154;9.198;2024-02-23T02:08:36;1.80;;;0.77;;
11113;SDS011;5610;52.154;9.198;2024-02-23T02:11:21;0.70;;;0.70;;
11113;SDS011;5610;52.154;9.198;2024-02-23T02:14:08;0.70;;;0.70;;
11113;SDS011;5610;52.154;9.198;2024-02-23T02:16:54;0.80;;;0.80;;
11113;SDS011;5610;52.154;9.198;2024-02-23T02:19:44;0.80;;;0.80;;
11113;SDS011;5610;52.154;9.198;2024-02-23T02:22:31;1.23;;;0.80;;
11113;SDS011;5610;52.154;9.198;2024-02-23T02:25:17;1.00;;;1.00;;
11113;SDS011;5610;52.154;9.198;2024-02-23T02:28:05;1.10;;;1.00;;
11113;SDS011;5610;52.154;9.198;2024-02-23T02:30:52;0.93;;;0.93;;
11113;SDS011;5610;52.154;9.198;2024-02-23T02:33:37;1.60;;;1.07;;
11113;SDS011;5610;52.154;9.198;2024-02-23T02:36:25;1.20;;;1.10;;
11113;SDS011;5610;52.154;9.198;2024-02-23T02:39:10;3.23;;;1.10;;
11113;SDS011;5610;52.154;9.198;2024-02-23T02:41:57;1.20;;;1.10;;
11113;SDS011;5610;52.154;9.198;2024-02-23T02:44:42;1.73;;;1.63;;
11113;SDS011;5610;52.154;9.198;2024-02-23T02:47:29;1.43;;;1.33;;
11113;SDS011;5610;52.154;9.198;2024-02-23T02:50:14;4.60;;;1.33;;
11113;SDS011;5610;52.154;9.198;2024-02-23T02:53:00;3.37;;;1.10;;
11113;SDS011;5610;52.154;9.198;2024-02-23T02:55:45;1.50;;;1.00;;
11113;SDS011;5610;52.154;9.198;2024-02-23T02:58:30;1.30;;;1.20;;
11113;SDS011;5610;52.154;9.198;2024-02-23T03:01:15;3.30;;;1.43;;
11113;SDS011;5610;52.154;9.198;2024-02-23T03:04:02;1.60;;;1.23;;
11113;SDS011;5610;52.154;9.198;2024-02-23T03:06:47;1.30;;;1.20;;
11113;SDS011;5610;52.154;9.198;2024-02-23T03:09:32;1.40;;;1.30;;
11113;SDS011;5610;52.154;9.198;2024-02-23T03:12:17;2.40;;;1.33;;
11113;SDS011;5610;52.154;9.198;2024-02-23T03:15:04;2.53;;;1.60;;
11113;SDS011;5610;52.154;9.198;2024-02-23T03:17:51;2.40;;;1.70;;
11113;SDS011;5610;52.154;9.198;2024-02-23T03:20:39;2.43;;;1.87;;
11113;SDS011;5610;52.154;9.198;2024-02-23T03:23:24;1.77;;;1.67;;
11113;SDS011;5610;52.154;9.198;2024-02-23T03:26:09;2.47;;;1.70;;
11113;SDS011;5610;52.154;9.198;2024-02-23T03:28:54;4.27;;;2.20;;
11113;SDS011;5610;52.154;9.198;2024-02-23T03:31:39;3.00;;;2.10;;
11113;SDS011;5610;52.154;9.198;2024-02-23T03:34:25;2.23;;;2.13;;
11113;SDS011;5610;52.154;9.198;2024-02-23T03:37:11;2.73;;;2.53;;
11113;SDS011;5610;52.154;9.198;2024-02-23T03:39:56;2.50;;;2.17;;
11113;SDS011;5610;52.154;9.198;2024-02-23T03:42:44;2.50;;;2.30;;
11113;SDS011;5610;52.154;9.198;2024-02-23T03:45:30;2.90;;;2.67;;
11113;SDS011;5610;52.154;9.198;2024-02-23T03:48:16;2.67;;;2.03;;
11113;SDS011;5610;52.154;9.198;2024-02-23T03:51:02;3.13;;;2.20;;
11113;SDS011;5610;52.154;9.198;2024-02-23T03:53:49;3.30;;;2.23;;
11113;SDS011;5610;52.154;9.198;2024-02-23T03:56:38;3.80;;;2.07;;
11113;SDS011;5610;52.154;9.198;2024-02-23T03:59:25;2.80;;;1.90;;
11113;SDS011;5610;52.154;9.198;2024-02-23T04:02:12;2.83;;;1.90;;
11113;SDS011;5610;52.154;9.198;2024-02-23T04:04:57;4.63;;;2.23;;
11113;SDS011;5610;52.154;9.198;2024-02-23T04:07:42;5.27;;;2.07;;
11113;SDS011;5610;52.154;9.198;2024-02-23T04:10:29;3.80;;;1.60;;
11113;SDS011;5610;52.154;9.198;2024-02-23T04:13:14;1.60;;;1.50;;
11113;SDS011;5610;52.154;9.198;2024-02-23T04:16:01;2.13;;;1.70;;
11113;SDS011;5610;52.154;9.198;2024-02-23T04:18:47;8.37;;;2.07;;
11113;SDS011;5610;52.154;9.198;2024-02-23T04:21:32;1.80;;;1.70;;
11113;SDS011;5610;52.154;9.198;2024-02-23T04:24:16;2.73;;;1.60;;
11113;SDS011;5610;52.154;9.198;2024-02-23T04:27:03;2.40;;;1.40;;
11113;SDS011;5610;52.154;9.198;2024-02-23T04:29:49;3.03;;;1.53;;
11113;SDS011;5610;52.154;9.198;2024-02-23T04:32:34;1.77;;;1.53;;
11113;SDS011;5610;52.154;9.198;2024-02-23T04:35:19;1.60;;;1.30;;
11113;SDS011;5610;52.154;9.198;2024-02-23T04:38:04;1.47;;;1.37;;
11113;SDS011;5610;52.154;9.198;2024-02-23T04:40:49;1.73;;;1.40;;
11113;SDS011;5610;52.154;9.198;2024-02-23T04:43:36;3.57;;;1.80;;
11113;SDS011;5610;52.154;9.198;2024-02-23T04:46:22;4.13;;;1.30;;
11113;SDS011;5610;52.154;9.198;2024-02-23T04:49:07;4.03;;;1.50;;
11113;SDS011;5610;52.154;9.198;2024-02-23T04:51:52;2.73;;;1.67;;
11113;SDS011;5610;52.154;9.198;2024-02-23T04:54:38;1.83;;;1.63;;
11113;SDS011;5610;52.154;9.198;2024-02-23T04:57:24;3.83;;;1.50;;
11113;SDS011;5610;52.154;9.198;2024-02-23T05:00:11;2.93;;;1.40;;
11113;SDS011;5610;52.154;9.198;2024-02-23T05:02:57;2.67;;;1.50;;
11113;SDS011;5610;52.154;9.198;2024-02-23T05:05:42;5.70;;;1.40;;
11113;SDS011;5610;52.154;9.198;2024-02-23T05:08:29;2.33;;;1.30;;
11113;SDS011;5610;52.154;9.198;2024-02-23T05:11:14;6.57;;;2.00;;
11113;SDS011;5610;52.154;9.198;2024-02-23T05:14:00;4.83;;;1.30;;
11113;SDS011;5610;52.154;9.198;2024-02-23T05:16:47;3.53;;;1.43;;
11113;SDS011;5610;52.154;9.198;2024-02-23T05:19:33;2.77;;;1.20;;
11113;SDS011;5610;52.154;9.198;2024-02-23T05:22:19;2.90;;;1.40;;
11113;SDS011;5610;52.154;9.198;2024-02-23T05:25:04;2.93;;;1.30;;
11113;SDS011;5610;52.154;9.198;2024-02-23T05:27:51;2.87;;;1.70;;
11113;SDS011;5610;52.154;9.198;2024-02-23T05:30:36;4.73;;;1.70;;
11113;SDS011;5610;52.154;9.198;2024-02-23T05:33:22;3.30;;;1.33;;
11113;SDS011;5610;52.154;9.198;2024-02-23T05:36:08;4.00;;;1.60;;
11113;SDS011;5610;52.154;9.198;2024-02-23T05:38:54;6.37;;;2.27;;
11113;SDS011;5610;52.154;9.198;2024-02-23T05:41:39;4.63;;;1.90;;
11113;SDS011;5610;52.154;9.198;2024-02-23T05:44:25;1.30;;;1.20;;
11113;SDS011;5610;52.154;9.198;2024-02-23T05:47:12;4.63;;;2.20;;
11113;SDS011;5610;52.154;9.198;2024-02-23T05:50:00;3.40;;;1.90;;
11113;SDS011;5610;52.154;9.198;2024-02-23T05:52:46;4.67;;;1.63;;
11113;SDS011;5610;52.154;9.198;2024-02-23T05:55:31;3.10;;;1.63;;
11113;SDS011;5610;52.154;9.198;2024-02-23T05:58:18;6.77;;;2.10;;
11113;SDS011;5610;52.154;9.198;2024-02-23T06:01:04;5.97;;;1.70;;
11113;SDS011;5610;52.154;9.198;2024-02-23T06:03:50;6.00;;;2.20;;
11113;SDS011;5610;52.154;9.198;2024-02-23T06:06:40;2.77;;;1.67;;
11113;SDS011;5610;52.154;9.198;2024-02-23T06:09:26;3.37;;;1.70;;
11113;SDS011;5610;52.154;9.198;2024-02-23T06:12:11;4.30;;;1.87;;
11113;SDS011;5610;52.154;9.198;2024-02-23T06:14:56;4.00;;;1.40;;
11113;SDS011;5610;52.154;9.198;2024-02-23T06:17:42;5.00;;;1.57;;
11113;SDS011;5610;52.154;9.198;2024-02-23T06:20:29;2.70;;;1.30;;
11113;SDS011;5610;52.154;9.198;2024-02-23T06:23:16;5.57;;;1.97;;
11113;SDS011;5610;52.154;9.198;2024-02-23T06:26:04;2.90;;;1.40;;
11113;SDS011;5610;52.154;9.198;2024-02-23T06:28:50;3.03;;;1.80;;
11113;SDS011;5610;52.154;9.198;2024-02-23T06:31:36;1.80;;;1.30;;
11113;SDS011;5610;52.154;9.198;2024-02-23T06:34:21;4.90;;;1.30;;
11113;SDS011;5610;52.154;9.198;2024-02-23T06:37:11;3.50;;;1.70;;
11113;SDS011;5610;52.154;9.198;2024-02-23T06:39:58;6.17;;;1.80;;
11113;SDS011;5610;52.154;9.198;2024-02-23T06:42:44;2.90;;;1.50;;
11113;SDS011;5610;52.154;9.198;2024-02-23T06:45:30;4.87;;;1.60;;
11113;SDS011;5610;52.154;9.198;2024-02-23T06:48:15;2.83;;;1.80;;
11113;SDS011;5610;52.154;9.198;2024-02-23T06:51:00;2.93;;;1.40;;
11113;SDS011;5610;52.154;9.198;2024-02-23T06:53:46;2.50;;;1.30;;
11113;SDS011;5610;52.154;9.198;2024-02-23T06:56:32;5.10;;;1.60;;
11113;SDS011;5610;52.154;9.198;2024-02-23T06:59:17;5.83;;;1.37;;
11113;SDS011;5610;52.154;9.198;2024-02-23T07:02:02;3.10;;;1.50;;
11113;SDS011;5610;52.154;9.198;2024-02-23T07:04:48;3.20;;;1.33;;
11113;SDS011;5610;52.154;9.198;2024-02-23T07:07:34;2.80;;;1.30;;
11113;SDS011;5610;52.154;9.198;2024-02-23T07:10:19;3.27;;;1.27;;
11113;SDS011;5610;52.154;9.198;2024-02-23T07:13:08;1.83;;;1.30;;
11113;SDS011;5610;52.154;9.198;2024-02-23T07:15:53;6.43;;;1.60;;
11113;SDS011;5610;52.154;9.198;2024-02-23T07:18:40;4.90;;;1.40;;
11113;SDS011;5610;52.154;9.198;2024-02-23T07:21:25;5.67;;;2.07;;
11113;SDS011;5610;52.154;9.198;2024-02-23T07:24:10;3.33;;;1.50;;
11113;SDS011;5610;52.154;9.198;2024-02-23T07:26:55;5.37;;;1.30;;
11113;SDS011;5610;52.154;9.198;2024-02-23T07:29:42;1.97;;;1.10;;
11113;SDS011;5610;52.154;9.198;2024-02-23T07:32:28;2.60;;;1.20;;
11113;SDS011;5610;52.154;9.198;2024-02-23T07:35:13;2.83;;;1.10;;
11113;SDS011;5610;52.154;9.198;2024-02-23T07:38:01;3.37;;;1.27;;
11113;SDS011;5610;52.154;9.198;2024-02-23T07:40:46;7.00;;;1.60;;
11113;SDS011;5610;52.154;9.198;2024-02-23T07:43:32;2.97;;;1.40;;
11113;SDS011;5610;52.154;9.198;2024-02-23T07:46:18;2.33;;;1.17;;
11113;SDS011;5610;52.154;9.198;2024-02-23T07:49:06;3.27;;;1.00;;
11113;SDS011;5610;52.154;9.198;2024-02-23T07:51:53;5.27;;;1.30;;
11113;SDS011;5610;52.154;9.198;2024-02-23T07:54:39;2.20;;;1.20;;
11113;SDS011;5610;52.154;9.198;2024-02-23T07:57:24;4.07;;;1.10;;
11113;SDS011;5610;52.154;9.198;2024-02-23T08:00:09;3.93;;;1.00;;
11113;SDS011;5610;52.154;9.198;2024-02-23T08:02:59;3.97;;;1.13;;
11113;SDS011;5610;52.154;9.198;2024-02-23T08:05:45;2.90;;;1.10;;
11113;SDS011;5610;52.154;9.198;2024-02-23T08:08:30;3.40;;;1.60;;
11113;SDS011;5610;52.154;9.198;2024-02-23T08:11:18;3.73;;;0.87;;
11113;SDS011;5610;52.154;9.198;2024-02-23T08:14:03;3.87;;;1.17;;
11113;SDS011;5610;52.154;9.198;2024-02-23T08:16:49;5.17;;;1.00;;
11113;SDS011;5610;52.154;9.198;2024-02-23T08:19:35;2.50;;;1.10;;
11113;SDS011;5610;52.154;9.198;2024-02-23T08:22:20;4.53;;;0.90;;
11113;SDS011;5610;52.154;9.198;2024-02-23T08:25:07;2.93;;;1.10;;
11113;SDS011;5610;52.154;9.198;2024-02-23T08:27:54;1.97;;;0.93;;
11113;SDS011;5610;52.154;9.198;2024-02-23T08:30:40;5.90;;;1.37;;
11113;SDS011;5610;52.154;9.198;2024-02-23T08:33:25;2.93;;;1.00;;
11113;SDS011;5610;52.154;9.198;2024-02-23T08:36:11;4.70;;;1.37;;
11113;SDS011;5610;52.154;9.198;2024-02-23T08:38:56;2.67;;;0.93;;
11113;SDS011;5610;52.154;9.198;2024-02-23T08:41:41;2.40;;;1.00;;
11113;SDS011;5610;52.154;9.198;2024-02-23T08:44:26;2.97;;;1.73;;
11113;SDS011;5610;52.154;9.198;2024-02-23T08:47:11;2.10;;;1.10;;
11113;SDS011;5610;52.154;9.198;2024-02-23T08:49:58;2.40;;;1.20;;
11113;SDS011;5610;52.154;9.198;2024-02-23T08:52:47;3.93;;;0.87;;
11113;SDS011;5610;52.154;9.198;2024-02-23T08:55:32;5.00;;;1.30;;
11113;SDS011;5610;52.154;9.198;2024-02-23T08:58:18;3.17;;;1.43;;
11113;SDS011;5610;52.154;9.198;2024-02-23T09:01:03;4.33;;;0.93;;
11113;SDS011;5610;52.154;9.198;2024-02-23T09:03:49;6.30;;;1.20;;
11113;SDS011;5610;52.154;9.198;2024-02-23T09:06:34;4.40;;;1.40;;
11113;SDS011;5610;52.154;9.198;2024-02-23T09:09:21;2.40;;;1.00;;
11113;SDS011;5610;52.154;9.198;2024-02-23T09:12:06;3.23;;;1.07;;
11113;SDS011;5610;52.154;9.198;2024-02-23T09:14:54;2.63;;;1.20;;
11113;SDS011;5610;52.154;9.198;2024-02-23T09:17:39;2.17;;;1.17;;
11113;SDS011;5610;52.154;9.198;2024-02-23T09:20:25;2.70;;;1.10;;
11113;SDS011;5610;52.154;9.198;2024-02-23T09:23:10;3.70;;;1.53;;
11113;SDS011;5610;52.154;9.198;2024-02-23T09:25:58;1.03;;;0.87;;
11113;SDS011;5610;52.154;9.198;2024-02-23T09:28:44;1.10;;;0.90;;
11113;SDS011;5610;52.154;9.198;2024-02-23T09:31:29;4.00;;;1.17;;
11113;SDS011;5610;52.154;9.198;2024-02-23T09:34:15;3.23;;;1.10;;
11113;SDS011;5610;52.154;9.198;2024-02-23T09:37:01;1.47;;;0.80;;
11113;SDS011;5610;52.154;9.198;2024-02-23T09:39:46;2.03;;;1.00;;
11113;SDS011;5610;52.154;9.198;2024-02-23T09:42:33;3.50;;;1.00;;
11113;SDS011;5610;52.154;9.198;2024-02-23T09:45:20;3.17;;;1.17;;
11113;SDS011;5610;52.154;9.198;2024-02-23T09:48:07;2.30;;;1.27;;
11113;SDS011;5610;52.154;9.198;2024-02-23T09:50:54;1.40;;;0.93;;
11113;SDS011;5610;52.154;9.198;2024-02-23T09:53:41;2.97;;;1.27;;
11113;SDS011;5610;52.154;9.198;2024-02-23T09:56:28;3.77;;;0.80;;
11113;SDS011;5610;52.154;9.198;2024-02-23T09:59:14;1.63;;;0.90;;
11113;SDS011;5610;52.154;9.198;2024-02-23T10:02:00;3.13;;;1.10;;
11113;SDS011;5610;52.154;9.198;2024-02-23T10:04:46;5.80;;;1.20;;
11113;SDS011;5610;52.154;9.198;2024-02-23T10:07:36;1.20;;;0.90;;
11113;SDS011;5610;52.154;9.198;2024-02-23T10:10:24;3.00;;;1.30;;
11113;SDS011;5610;52.154;9.198;2024-02-23T10:13:10;2.90;;;1.47;;
11113;SDS011;5610;52.154;9.198;2024-02-23T10:15:56;3.70;;;1.17;;
11113;SDS011;5610;52.154;9.198;2024-02-23T10:18:42;2.73;;;1.07;;
11113;SDS011;5610;52.154;9.198;2024-02-23T10:21:27;2.60;;;0.93;;
11113;SDS011;5610;52.154;9.198;2024-02-23T10:24:13;2.53;;;1.00;;
11113;SDS011;5610;52.154;9.198;2024-02-23T10:27:00;3.13;;;1.10;;
11113;SDS011;5610;52.154;9.198;2024-02-23T10:29:48;3.07;;;1.20;;
11113;SDS011;5610;52.154;9.198;2024-02-23T10:32:36;3.87;;;0.97;;
11113;SDS011;5610;52.154;9.198;2024-02-23T10:35:24;2.60;;;1.47;;
11113;SDS011;5610;52.154;9.198;2024-02-23T10:38:10;2.73;;;1.23;;
11113;SDS011;5610;52.154;9.198;2024-02-23T10:40:57;1.47;;;0.90;;
11113;SDS011;5610;52.154;9.198;2024-02-23T10:43:44;2.17;;;1.10;;
11113;SDS011;5610;52.154;9.198;2024-02-23T10:46:31;1.50;;;1.13;;
11113;SDS011;5610;52.154;9.198;2024-02-23T10:49:20;2.80;;;1.27;;
11113;SDS011;5610;52.154;9.198;2024-02-23T10:52:10;2.70;;;1.07;;
11113;SDS011;5610;52.154;9.198;2024-02-23T10:54:58;2.00;;;0.93;;
11113;SDS011;5610;52.154;9.198;2024-02-23T10:57:48;4.43;;;1.30;;
11113;SDS011;5610;52.154;9.198;2024-02-23T11:00:37;2.13;;;1.00;;
11113;SDS011;5610;52.154;9.198;2024-02-23T11:03:22;4.80;;;1.00;;
11113;SDS011;5610;52.154;9.198;2024-02-23T11:06:09;2.23;;;1.20;;
11113;SDS011;5610;52.154;9.198;2024-02-23T11:09:04;1.90;;;1.10;;
11113;SDS011;5610;52.154;9.198;2024-02-23T11:11:52;1.50;;;1.07;;
11113;SDS011;5610;52.154;9.198;2024-02-23T11:14:38;1.83;;;0.93;;
11113;SDS011;5610;52.154;9.198;2024-02-23T11:17:26;3.10;;;1.30;;
11113;SDS011;5610;52.154;9.198;2024-02-23T11:20:14;2.37;;;1.27;;
11113;SDS011;5610;52.154;9.198;2024-02-23T11:23:12;3.13;;;1.47;;
11113;SDS011;5610;52.154;9.198;2024-02-23T11:25:59;2.20;;;1.27;;
11113;SDS011;5610;52.154;9.198;2024-02-23T11:28:49;1.80;;;1.13;;
11113;SDS011;5610;52.154;9.198;2024-02-23T11:31:37;4.30;;;1.20;;
11113;SDS011;5610;52.154;9.198;2024-02-23T11:34:30;3.57;;;1.13;;
11113;SDS011;5610;52.154;9.198;2024-02-23T11:37:15;3.23;;;1.43;;
11113;SDS011;5610;52.154;9.198;2024-02-23T11:40:05;2.43;;;1.10;;
11113;SDS011;5610;52.154;9.198;2024-02-23T11:42:54;4.50;;;1.37;;
11113;SDS011;5610;52.154;9.198;2024-02-23T11:45:39;2.47;;;1.03;;
11113;SDS011;5610;52.154;9.198;2024-02-23T11:48:25;3.43;;;1.43;;
11113;SDS011;5610;52.154;9.198;2024-02-23T11:51:10;1.77;;;0.90;;
11113;SDS011;5610;52.154;9.198;2024-02-23T11:53:55;5.30;;;1.57;;
11113;SDS011;5610;52.154;9.198;2024-02-23T11:56:43;4.93;;;1.10;;
11113;SDS011;5610;52.154;9.198;2024-02-23T11:59:28;1.70;;;0.90;;
11113;SDS011;5610;52.154;9.198;2024-02-23T12:02:14;4.50;;;1.00;;
11113;SDS011;5610;52.154;9.198;2024-02-23T12:04:59;2.30;;;0.83;;
11113;SDS011;5610;52.154;9.198;2024-02-23T12:07:44;1.33;;;0.90;;
11113;SDS011;5610;52.154;9.198;2024-02-23T12:10:29;1.43;;;1.10;;
11113;SDS011;5610;52.154;9.198;2024-02-23T12:13:16;1.50;;;1.20;;
11113;SDS011;5610;52.154;9.198;2024-02-23T12:16:02;2.17;;;1.37;;
11113;SDS011;5610;52.154;9.198;2024-02-23T12:18:52;4.00;;;1.00;;
11113;SDS011;5610;52.154;9.198;2024-02-23T12:21:38;5.23;;;1.27;;
11113;SDS011;5610;52.154;9.198;2024-02-23T12:24:25;1.57;;;0.80;;
11113;SDS011;5610;52.154;9.198;2024-02-23T12:27:11;1.27;;;0.77;;
11113;SDS011;5610;52.154;9.198;2024-02-23T12:30:03;6.80;;;1.20;;
11113;SDS011;5610;52.154;9.198;2024-02-23T12:32:50;1.67;;;1.20;;
11113;SDS011;5610;52.154;9.198;2024-02-23T12:35:36;2.00;;;0.83;;
11113;SDS011;5610;52.154;9.198;2024-02-23T12:38:21;3.53;;;1.30;;
11113;SDS011;5610;52.154;9.198;2024-02-23T12:41:06;3.67;;;1.70;;
11113;SDS011;5610;52.154;9.198;2024-02-23T12:43:51;1.30;;;1.10;;
11113;SDS011;5610;52.154;9.198;2024-02-23T12:46:38;1.30;;;0.90;;
11113;SDS011;5610;52.154;9.198;2024-02-23T12:49:24;2.97;;;1.13;;
11113;SDS011;5610;52.154;9.198;2024-02-23T12:52:09;1.90;;;0.90;;
11113;SDS011;5610;52.154;9.198;2024-02-23T12:54:54;2.60;;;0.93;;
11113;SDS011;5610;52.154;9.198;2024-02-23T12:57:40;7.23;;;1.23;;
11113;SDS011;5610;52.154;9.198;2024-02-23T13:00:25;3.13;;;1.13;;
11113;SDS011;5610;52.154;9.198;2024-02-23T13:03:12;2.93;;;0.90;;
11113;SDS011;5610;52.154;9.198;2024-02-23T13:05:57;2.87;;;1.00;;
11113;SDS011;5610;52.154;9.198;2024-02-23T13:08:42;4.20;;;1.10;;
11113;SDS011;5610;52.154;9.198;2024-02-23T13:11:28;1.70;;;0.67;;
11113;SDS011;5610;52.154;9.198;2024-02-23T13:14:13;2.63;;;1.10;;
11113;SDS011;5610;52.154;9.198;2024-02-23T13:16:59;1.70;;;0.90;;
11113;SDS011;5610;52.154;9.198;2024-02-23T13:19:46;1.73;;;1.00;;
11113;SDS011;5610;52.154;9.198;2024-02-23T13:22:31;1.87;;;1.17;;
11113;SDS011;5610;52.154;9.198;2024-02-23T13:25:16;1.20;;;0.90;;
11113;SDS011;5610;52.154;9.198;2024-02-23T13:28:01;1.50;;;0.70;;
11113;SDS011;5610;52.154;9.198;2024-02-23T13:30:48;2.63;;;1.10;;
11113;SDS011;5610;52.154;9.198;2024-02-23T13:33:33;1.70;;;1.00;;
11113;SDS011;5610;52.154;9.198;2024-02-23T13:36:20;2.23;;;1.30;;
11113;SDS011;5610;52.154;9.198;2024-02-23T13:39:05;3.60;;;1.07;;
11113;SDS011;5610;52.154;9.198;2024-02-23T13:41:50;1.50;;;0.77;;
11113;SDS011;5610;52.154;9.198;2024-02-23T13:44:35;1.60;;;1.00;;
11113;SDS011;5610;52.154;9.198;2024-02-23T13:47:21;3.30;;;0.93;;
11113;SDS011;5610;52.154;9.198;2024-02-23T13:50:06;2.47;;;1.00;;
11113;SDS011;5610;52.154;9.198;2024-02-23T13:52:53;1.27;;;0.80;;
11113;SDS011;5610;52.154;9.198;2024-02-23T13:55:39;3.43;;;0.73;;
11113;SDS011;5610;52.154;9.198;2024-02-23T13:58:26;1.10;;;0.70;;
11113;SDS011;5610;52.154;9.198;2024-02-23T14:01:11;2.80;;;0.93;;
11113;SDS011;5610;52.154;9.198;2024-02-23T14:03:57;4.90;;;1.33;;
11113;SDS011;5610;52.154;9.198;2024-02-23T14:06:42;1.77;;;0.90;;
11113;SDS011;5610;52.154;9.198;2024-02-23T14:09:29;2.47;;;0.90;;
11113;SDS011;5610;52.154;9.198;2024-02-23T14:12:14;2.70;;;0.80;;
11113;SDS011;5610;52.154;9.198;2024-02-23T14:14:59;3.67;;;1.00;;
11113;SDS011;5610;52.154;9.198;2024-02-23T14:17:44;2.47;;;0.90;;
11113;SDS011;5610;52.154;9.198;2024-02-23T14:20:30;2.33;;;1.23;;
11113;SDS011;5610;52.154;9.198;2024-02-23T14:23:15;1.53;;;0.77;;
11113;SDS011;5610;52.154;9.198;2024-02-23T14:26:02;2.63;;;0.70;;
11113;SDS011;5610;52.154;9.198;2024-02-23T14:28:47;1.33;;;1.13;;
11113;SDS011;5610;52.154;9.198;2024-02-23T14:31:33;2.03;;;0.90;;
11113;SDS011;5610;52.154;9.198;2024-02-23T14:34:18;2.20;;;0.97;;
11113;SDS011;5610;52.154;9.198;2024-02-23T14:37:07;2.13;;;1.13;;
11113;SDS011;5610;52.154;9.198;2024-02-23T14:39:52;2.60;;;1.13;;
11113;SDS011;5610;52.154;9.198;2024-02-23T14:42:39;2.50;;;0.90;;
11113;SDS011;5610;52.154;9.198;2024-02-23T14:45:25;5.53;;;1.17;;
11113;SDS011;5610;52.154;9.198;2024-02-23T14:48:11;3.67;;;1.10;;
11113;SDS011;5610;52.154;9.198;2024-02-23T14:50:57;3.77;;;0.93;;
11113;SDS011;5610;52.154;9.198;2024-02-23T14:53:42;2.13;;;1.30;;
11113;SDS011;5610;52.154;9.198;2024-02-23T14:56:28;2.10;;;1.00;;
11113;SDS011;5610;52.154;9.198;2024-02-23T14:59:14;2.60;;;1.00;;
11113;SDS011;5610;52.154;9.198;2024-02-23T15:02:00;2.63;;;1.30;;
11113;SDS011;5610;52.154;9.198;2024-02-23T15:04:45;1.10;;;0.80;;
11113;SDS011;5610;52.154;9.198;2024-02-23T15:07:30;2.70;;;1.10;;
11113;SDS011;5610;52.154;9.198;2024-02-23T15:10:16;1.67;;;0.90;;
11113;SDS011;5610;52.154;9.198;2024-02-23T15:13:01;3.73;;;1.10;;
11113;SDS011;5610;52.154;9.198;2024-02-23T15:15:48;3.50;;;0.90;;
11113;SDS011;5610;52.154;9.198;2024-02-23T15:18:34;3.70;;;1.20;;
11113;SDS011;5610;52.154;9.198;2024-02-23T15:21:20;3.13;;;1.00;;
11113;SDS011;5610;52.154;9.198;2024-02-23T15:24:05;3.57;;;1.17;;
11113;SDS011;5610;52.154;9.198;2024-02-23T15:26:50;1.77;;;0.93;;
11113;SDS011;5610;52.154;9.198;2024-02-23T15:29:36;4.13;;;1.30;;
11113;SDS011;5610;52.154;9.198;2024-02-23T15:32:22;2.50;;;1.20;;
11113;SDS011;5610;52.154;9.198;2024-02-23T15:35:08;2.53;;;0.90;;
11113;SDS011;5610;52.154;9.198;2024-02-23T15:37:53;0.97;;;0.70;;
11113;SDS011;5610;52.154;9.198;2024-02-23T15:40:38;2.00;;;0.90;;
11113;SDS011;5610;52.154;9.198;2024-02-23T15:43:23;2.17;;;0.70;;
11113;SDS011;5610;52.154;9.198;2024-02-23T15:46:12;5.60;;;1.00;;
11113;SDS011;5610;52.154;9.198;2024-02-23T15:48:58;1.10;;;0.70;;
11113;SDS011;5610;52.154;9.198;2024-02-23T15:51:43;1.90;;;1.30;;
11113;SDS011;5610;52.154;9.198;2024-02-23T15:54:29;2.40;;;1.00;;
11113;SDS011;5610;52.154;9.198;2024-02-23T15:57:15;1.63;;;1.30;;
11113;SDS011;5610;52.154;9.198;2024-02-23T16:00:00;3.87;;;1.10;;
11113;SDS011;5610;52.154;9.198;2024-02-23T16:02:48;2.70;;;1.30;;
11113;SDS011;5610;52.154;9.198;2024-02-23T16:05:35;2.77;;;1.10;;
11113;SDS011;5610;52.154;9.198;2024-02-23T16:08:21;3.67;;;1.23;;
11113;SDS011;5610;52.154;9.198;2024-02-23T16:11:24;3.53;;;1.20;;
11113;SDS011;5610;52.154;9.198;2024-02-23T16:14:10;4.23;;;1.90;;
11113;SDS011;5610;52.154;9.198;2024-02-23T16:16:55;2.57;;;1.50;;
11113;SDS011;5610;52.154;9.198;2024-02-23T16:19:40;3.10;;;2.17;;
11113;SDS011;5610;52.154;9.198;2024-02-23T16:22:27;5.77;;;1.30;;
11113;SDS011;5610;52.154;9.198;2024-02-23T16:25:12;4.00;;;2.47;;
11113;SDS011;5610;52.154;9.198;2024-02-23T16:27:57;2.90;;;1.50;;
11113;SDS011;5610;52.154;9.198;2024-02-23T16:30:42;3.03;;;0.97;;
11113;SDS011;5610;52.154;9.198;2024-02-23T16:33:28;1.90;;;0.97;;
11113;SDS011;5610;52.154;9.198;2024-02-23T16:36:13;2.07;;;1.07;;
11113;SDS011;5610;52.154;9.198;2024-02-23T16:39:00;1.70;;;1.00;;
11113;SDS011;5610;52.154;9.198;2024-02-23T16:41:45;1.63;;;0.93;;
11113;SDS011;5610;52.154;9.198;2024-02-23T16:44:30;3.13;;;1.87;;
11113;SDS011;5610;52.154;9.198;2024-02-23T16:47:15;2.60;;;1.20;;
11113;SDS011;5610;52.154;9.198;2024-02-23T16:50:01;2.97;;;0.83;;
11113;SDS011;5610;52.154;9.198;2024-02-23T16:52:46;2.77;;;1.23;;
11113;SDS011;5610;52.154;9.198;2024-02-23T16:55:32;3.10;;;0.90;;